Time;durP1;ratioP1;P1;durP2;ratioP2;P2;SDS_P1;SDS_P2;PMS_P1;PMS_P2;Temp;Humidity;BMP_temperature;BMP_pressure;BME280_temperature;BME280_humidity;BME280_pressure;Samples;Min_cycle;Max_cycle;Signal;HPM_P1;HPM_P2
2022/04/05 00:01:21;;;;;;;;;;;;;;;4.77;56.16;100362.97;1774053;79;20199;-57
2022/04/05 00:04:28;;;;;;;;;;;;;;;4.79;55.97;100354.70;1773753;80;20178;-57
2022/04/05 00:07:33;;;;;;;;;;;;;;;4.78;55.86;100344.34;1773998;81;20644;-58
2022/04/05 00:10:36;;;;;;;;;;;;;;;4.79;55.68;100346.56;1774037;79;20185;-60
2022/04/05 00:13:28;;;;;;;;;;;;;;;4.80;55.60;100345.55;1773894;80;20186;-57
2022/04/05 00:16:34;;;;;;;;;;;;;;;4.78;55.74;100334.84;1774016;79;20225;-57
2022/04/05 00:19:40;;;;;;;;;;;;;;;4.78;55.76;100338.92;1773787;79;20193;-59
2022/04/05 00:22:45;;;;;;;;;;;;;;;4.77;55.67;100335.86;1774025;81;20182;-58
2022/04/05 00:25:51;;;;;;;;;;;;;;;4.74;55.69;100333.40;1774056;79;20186;-59
2022/04/05 00:28:55;;;;;;;;;;;;;;;4.74;55.71;100332.56;1773920;81;20193;-60
2022/04/05 00:32:00;;;;;;;;;;;;;;;4.74;55.87;100322.55;1773934;79;20205;-57
2022/04/05 00:35:05;;;;;;;;;;;;;;;4.75;55.90;100319.35;1773186;79;20205;-59
2022/04/05 00:38:10;;;;;;;;;;;;;;;4.73;55.80;100322.70;1775792;81;20202;-59
2022/04/05 00:41:14;;;;;;;;;;;;;;;4.67;55.73;100314.64;1775703;79;20189;-59
2022/04/05 00:44:21;;;;;;;;;;;;;;;4.65;55.80;100317.98;1775749;81;20269;-60
2022/04/05 00:47:29;;;;;;;;;;;;;;;4.61;55.75;100316.04;1775648;81;20182;-60
2022/04/05 00:50:33;;;;;;;;;;;;;;;4.54;55.76;100325.75;1775767;79;20205;-58
2022/04/05 00:53:39;;;;;;;;;;;;;;;4.47;55.63;100316.96;1775701;81;20285;-58
2022/04/05 00:56:44;;;;;;;;;;;;;;;4.41;55.56;100317.00;1775732;79;20296;-58
2022/04/05 00:59:56;;;;;;;;;;;;;;;4.34;55.46;100307.70;1775770;79;20468;-57
2022/04/05 01:03:02;;;;;;;;;;;;;;;4.27;55.53;100301.13;1775656;81;20193;-59
2022/04/05 01:06:06;;;;;;;;;;;;;;;4.16;55.60;100301.24;1767437;80;20182;-59
2022/04/05 01:09:11;;;;;;;;;;;;;;;4.06;55.90;100307.63;1775692;81;20202;-58
2022/04/05 01:12:18;;;;;;;;;;;;;;;4.01;56.17;100303.11;1786940;80;20194;-57
2022/04/05 01:15:23;;;;;;;;;;;;;;;3.98;56.37;100305.58;1768146;79;20210;-58
2022/04/05 01:18:29;;;;;;;;;;;;;;;3.95;56.44;100310.41;1775632;81;20217;-57
2022/04/05 01:21:34;;;;;;;;;;;;;;;3.91;56.48;100307.63;1775724;79;20225;-58
2022/04/05 01:24:39;;;;;;;;;;;;;;;3.89;56.21;100299.63;1775644;79;20190;-56
2022/04/05 01:27:44;;;;;;;;;;;;;;;3.91;55.87;100295.44;1767538;80;20229;-57
2022/04/05 01:30:50;;;;;;;;;;;;;;;3.96;55.52;100295.89;1775660;79;20202;-58
2022/04/05 01:33:55;;;;;;;;;;;;;;;3.97;55.13;100286.77;1775643;81;20194;-58
2022/04/05 01:37:02;;;;;;;;;;;;;;;3.99;54.88;100284.78;1750954;80;20210;-57
2022/04/05 01:40:06;;;;;;;;;;;;;;;4.01;54.72;100281.45;1733467;83;20245;-58
2022/04/05 01:43:11;;;;;;;;;;;;;;;3.99;54.52;100278.88;1716838;83;20229;-58
2022/04/05 01:46:17;;;;;;;;;;;;;;;4.01;54.43;100280.09;1733351;83;20190;-58
2022/04/05 01:49:22;;;;;;;;;;;;;;;3.99;54.39;100278.88;1733586;83;20265;-57
2022/04/05 01:52:26;;;;;;;;;;;;;;;3.96;54.34;100281.86;1733731;82;20592;-58
2022/04/05 01:55:32;;;;;;;;;;;;;;;3.92;54.24;100281.76;1733660;82;20540;-57
2022/04/05 01:58:36;;;;;;;;;;;;;;;3.88;54.27;100280.33;1733489;83;20233;-57
2022/04/05 02:01:41;;;;;;;;;;;;;;;3.82;54.53;100275.95;1733421;82;20205;-57
2022/04/05 02:04:46;;;;;;;;;;;;;;;3.73;54.75;100274.91;1733415;83;20354;-57
2022/04/05 02:07:51;;;;;;;;;;;;;;;3.65;55.02;100275.20;1733497;83;20210;-58
2022/04/05 02:10:57;;;;;;;;;;;;;;;3.58;55.23;100266.80;1733617;82;20260;-58
2022/04/05 02:14:05;;;;;;;;;;;;;;;3.50;55.73;100266.61;1733517;82;20205;-58
2022/04/05 02:17:15;;;;;;;;;;;;;;;3.39;56.06;100267.17;1733506;83;20566;-57
2022/04/05 02:20:20;;;;;;;;;;;;;;;3.31;56.32;100268.33;1733431;83;20197;-58
2022/04/05 02:23:25;;;;;;;;;;;;;;;3.25;56.44;100269.70;1733502;82;20240;-59
2022/04/05 02:26:33;;;;;;;;;;;;;;;3.21;56.55;100274.16;1733510;83;20225;-58
2022/04/05 02:29:34;;;;;;;;;;;;;;;3.15;56.63;100274.20;1733504;82;20521;-58
2022/04/05 02:32:28;;;;;;;;;;;;;;;3.11;56.68;100267.33;1716229;83;20265;-58
2022/04/05 02:35:16;;;;;;;;;;;;;;;3.07;56.56;100269.95;1733528;83;20225;-58
2022/04/05 02:38:15;;;;;;;;;;;;;;;3.05;56.50;100275.97;1767710;76;20170;-58
2022/04/05 02:41:21;;;;;;;;;;;;;;;3.03;56.58;100263.08;1760884;81;20183;-56
2022/04/05 02:44:24;;;;;;;;;;;;;;;3.01;56.58;100271.83;1773888;80;20229;-58
2022/04/05 02:47:30;;;;;;;;;;;;;;;3.02;56.59;100264.08;1774155;80;20535;-59
2022/04/05 02:50:37;;;;;;;;;;;;;;;3.02;56.57;100268.13;1786830;80;20182;-58
2022/04/05 02:53:44;;;;;;;;;;;;;;;3.03;56.54;100263.08;1773949;81;20181;-58
2022/04/05 02:56:50;;;;;;;;;;;;;;;3.03;56.55;100261.23;1773526;79;20245;-58
2022/04/05 02:59:56;;;;;;;;;;;;;;;3.01;56.50;100256.96;1773725;79;20253;-59
2022/04/05 03:03:01;;;;;;;;;;;;;;;2.96;56.55;100260.06;1773751;80;20182;-58
2022/04/05 03:06:10;;;;;;;;;;;;;;;2.93;56.66;100254.05;1773937;79;20213;-57
2022/04/05 03:09:15;;;;;;;;;;;;;;;2.84;56.82;100250.77;1773693;80;20190;-58
2022/04/05 03:12:21;;;;;;;;;;;;;;;2.76;57.00;100254.13;1774054;80;20229;-58
2022/04/05 03:15:27;;;;;;;;;;;;;;;2.69;57.20;100248.89;1773884;79;20198;-58
2022/04/05 03:18:35;;;;;;;;;;;;;;;2.64;57.46;100255.17;1774008;81;20190;-58
2022/04/05 03:21:42;;;;;;;;;;;;;;;2.58;57.72;100255.69;1774302;79;20190;-58
2022/04/05 03:24:47;;;;;;;;;;;;;;;2.52;57.90;100253.99;1786421;79;20206;-58
2022/04/05 03:27:53;;;;;;;;;;;;;;;2.47;58.16;100240.00;1774357;80;20190;-58
2022/04/05 03:31:00;;;;;;;;;;;;;;;2.45;58.40;100243.32;1774604;79;20181;-60
2022/04/05 03:34:09;;;;;;;;;;;;;;;2.43;58.58;100248.85;1772676;80;20203;-57
2022/04/05 03:37:15;;;;;;;;;;;;;;;2.40;58.71;100249.59;1773193;81;20501;-59
2022/04/05 03:40:21;;;;;;;;;;;;;;;2.39;58.84;100255.98;1737779;81;20531;-57
2022/04/05 03:43:28;;;;;;;;;;;;;;;2.37;58.92;100253.42;1737617;82;20222;-58
2022/04/05 03:46:34;;;;;;;;;;;;;;;2.36;59.01;100250.84;1737980;81;20214;-58
2022/04/05 03:49:39;;;;;;;;;;;;;;;2.37;59.03;100247.15;1737661;81;20617;-56
2022/04/05 03:52:45;;;;;;;;;;;;;;;2.37;59.11;100253.91;1702591;84;20264;-59
2022/04/05 03:55:51;;;;;;;;;;;;;;;2.40;59.08;100259.91;1737976;82;20210;-59
2022/04/05 03:58:56;;;;;;;;;;;;;;;2.43;59.09;100257.44;1737790;82;20638;-58
2022/04/05 04:02:00;;;;;;;;;;;;;;;2.46;59.08;100254.00;1738014;82;20222;-57
2022/04/05 04:05:07;;;;;;;;;;;;;;;2.48;58.97;100250.68;1737989;82;20217;-59
2022/04/05 04:08:15;;;;;;;;;;;;;;;2.52;58.93;100248.59;1738014;82;20202;-58
2022/04/05 04:11:21;;;;;;;;;;;;;;;2.59;58.80;100253.83;1738500;81;20206;-60
2022/04/05 04:14:33;;;;;;;;;;;;;;;2.62;58.72;100254.43;1738094;82;20255;-58
2022/04/05 04:17:41;;;;;;;;;;;;;;;2.69;58.51;100245.32;1702499;84;20556;-59
2022/04/05 04:20:48;;;;;;;;;;;;;;;2.74;58.43;100250.68;1738490;82;20222;-59
2022/04/05 04:23:53;;;;;;;;;;;;;;;2.78;58.22;100241.83;1738517;82;20210;-59
2022/04/05 04:26:59;;;;;;;;;;;;;;;2.86;58.05;100247.44;1738583;82;20171;-59
2022/04/05 04:30:04;;;;;;;;;;;;;;;2.91;58.01;100246.56;1738557;82;20258;-59
2022/04/05 04:33:13;;;;;;;;;;;;;;;2.99;58.02;100248.12;1702909;84;20205;-57
2022/04/05 04:36:18;;;;;;;;;;;;;;;3.06;57.80;100243.39;1738472;82;20186;-59
2022/04/05 04:39:23;;;;;;;;;;;;;;;3.14;57.66;100244.59;1746625;81;20184;-59
2022/04/05 04:42:28;;;;;;;;;;;;;;;3.23;57.52;100240.60;1753128;81;20238;-56
2022/04/05 04:45:34;;;;;;;;;;;;;;;3.32;57.12;100247.04;1732068;83;20210;-59
2022/04/05 04:48:39;;;;;;;;;;;;;;;3.41;56.71;100252.51;1731180;82;20317;-59
2022/04/05 04:51:44;;;;;;;;;;;;;;;3.51;56.09;100245.31;1681758;85;20221;-61
2022/04/05 04:54:48;;;;;;;;;;;;;;;3.59;55.58;100246.84;1681303;83;20613;-59
2022/04/05 04:57:53;;;;;;;;;;;;;;;3.67;55.26;100244.33;1709624;83;20249;-58
2022/04/05 05:00:57;;;;;;;;;;;;;;;3.76;54.83;100238.09;1692323;84;20220;-58
2022/04/05 05:04:03;;;;;;;;;;;;;;;3.84;54.30;100238.75;1679623;84;20583;-59
2022/04/05 05:07:10;;;;;;;;;;;;;;;3.91;54.03;100237.22;1732280;81;20506;-58
2022/04/05 05:10:17;;;;;;;;;;;;;;;4.00;53.69;100238.61;1754637;81;20600;-57
2022/04/05 05:13:21;;;;;;;;;;;;;;;4.09;53.60;100235.06;1759618;81;20208;-57
2022/04/05 05:16:26;;;;;;;;;;;;;;;4.14;52.94;100236.86;1736526;82;20584;-57
2022/04/05 05:19:32;;;;;;;;;;;;;;;4.19;52.88;100230.53;1738415;82;20204;-58
2022/04/05 05:22:36;;;;;;;;;;;;;;;4.27;52.56;100234.77;1737202;81;20239;-58
2022/04/05 05:25:42;;;;;;;;;;;;;;;4.30;52.39;100229.05;1734919;80;20299;-60
2022/04/05 05:28:48;;;;;;;;;;;;;;;4.35;52.49;100230.86;1698299;82;20222;-58
2022/04/05 05:31:56;;;;;;;;;;;;;;;4.43;52.13;100228.30;1684086;84;20222;-57
2022/04/05 05:35:00;;;;;;;;;;;;;;;4.49;52.05;100229.09;1730532;83;20653;-59
2022/04/05 05:38:07;;;;;;;;;;;;;;;4.55;52.07;100217.67;1731228;83;20214;-58
2022/04/05 05:41:13;;;;;;;;;;;;;;;4.68;52.12;100222.81;1754046;80;20667;-58
2022/04/05 05:44:17;;;;;;;;;;;;;;;4.77;52.06;100217.91;1772076;81;20219;-59
2022/04/05 05:47:22;;;;;;;;;;;;;;;4.88;51.93;100215.05;1771473;81;20254;-58
2022/04/05 05:50:28;;;;;;;;;;;;;;;4.99;51.74;100208.11;1771318;81;20206;-56
2022/04/05 05:53:32;;;;;;;;;;;;;;;5.10;51.63;100207.95;1750945;81;20217;-58
2022/04/05 05:56:37;;;;;;;;;;;;;;;5.20;51.41;100206.58;1771006;81;20585;-60
2022/04/05 05:59:42;;;;;;;;;;;;;;;5.25;51.33;100201.57;1758924;79;20210;-58
2022/04/05 06:02:48;;;;;;;;;;;;;;;5.27;51.13;100205.84;1771529;81;20249;-57
2022/04/05 06:05:56;;;;;;;;;;;;;;;5.31;50.58;100203.69;1769739;79;20226;-57
2022/04/05 06:09:01;;;;;;;;;;;;;;;5.37;50.67;100204.45;1772627;81;20601;-58
2022/04/05 06:12:05;;;;;;;;;;;;;;;5.42;50.87;100209.78;1772017;81;20227;-57
2022/04/05 06:15:10;;;;;;;;;;;;;;;5.49;50.49;100207.33;1772542;81;20253;-58
2022/04/05 06:18:14;;;;;;;;;;;;;;;5.57;50.30;100197.45;1772431;81;20255;-61
2022/04/05 06:21:19;;;;;;;;;;;;;;;5.70;50.12;100198.47;1772513;79;20369;-61
2022/04/05 06:24:30;;;;;;;;;;;;;;;5.81;50.01;100196.43;1744029;81;20273;-60
2022/04/05 06:27:34;;;;;;;;;;;;;;;5.98;50.21;100187.99;1732781;83;20214;-60
2022/04/05 06:30:38;;;;;;;;;;;;;;;6.17;49.93;100185.16;1771262;81;20269;-57
2022/04/05 06:33:44;;;;;;;;;;;;;;;6.37;49.64;100189.98;1772647;81;20261;-58
2022/04/05 06:36:53;;;;;;;;;;;;;;;6.53;49.31;100188.79;1768143;80;20273;-59
2022/04/05 06:40:00;;;;;;;;;;;;;;;6.68;48.54;100181.78;1771631;80;20478;-57
2022/04/05 06:43:05;;;;;;;;;;;;;;;6.67;48.50;100172.78;1768634;80;20241;-57
2022/04/05 06:46:15;;;;;;;;;;;;;;;6.61;48.74;100177.46;1771784;80;20225;-56
2022/04/05 06:49:20;;;;;;;;;;;;;;;6.56;48.90;100177.10;1771786;80;20489;-57
2022/04/05 06:52:25;;;;;;;;;;;;;;;6.51;49.13;100178.06;1771765;80;20202;-58
2022/04/05 06:55:30;;;;;;;;;;;;;;;6.47;49.64;100174.45;1772580;79;20656;-55
2022/04/05 06:58:36;;;;;;;;;;;;;;;6.51;50.50;100168.55;1772103;81;20826;-57
2022/04/05 07:01:41;;;;;;;;;;;;;;;6.63;51.13;100160.49;1771449;81;20245;-58
2022/04/05 07:04:46;;;;;;;;;;;;;;;6.76;52.10;100169.12;1770836;81;20265;-57
2022/04/05 07:07:51;;;;;;;;;;;;;;;6.84;52.63;100155.59;1767575;80;20258;-58
2022/04/05 07:10:56;;;;;;;;;;;;;;;6.90;53.21;100159.53;1765562;80;20197;-58
2022/04/05 07:14:05;;;;;;;;;;;;;;;6.94;53.64;100157.72;1766321;80;20210;-59
2022/04/05 07:17:14;;;;;;;;;;;;;;;7.05;54.24;100155.23;1771370;80;20202;-64
2022/04/05 07:20:20;;;;;;;;;;;;;;;7.20;53.92;100153.63;1771695;80;20221;-57
2022/04/05 07:23:27;;;;;;;;;;;;;;;7.40;52.88;100155.97;1761134;81;20469;-59
2022/04/05 07:26:32;;;;;;;;;;;;;;;7.50;52.71;100155.36;1761628;80;20276;-57
2022/04/05 07:29:36;;;;;;;;;;;;;;;7.61;51.72;100150.98;1767763;80;20397;-58
2022/04/05 07:32:46;;;;;;;;;;;;;;;7.57;51.40;100149.63;1770432;80;20205;-57
2022/04/05 07:35:52;;;;;;;;;;;;;;;7.43;51.45;100139.34;1771413;80;20233;-57
2022/04/05 07:38:58;;;;;;;;;;;;;;;7.39;51.86;100133.84;1771443;81;20214;-59
2022/04/05 07:42:07;;;;;;;;;;;;;;;7.40;52.52;100126.02;1766632;80;20257;-57
2022/04/05 07:45:14;;;;;;;;;;;;;;;7.43;52.37;100110.74;1770982;79;20249;-60
2022/04/05 07:48:19;;;;;;;;;;;;;;;7.35;52.57;100114.78;1755249;81;20225;-58
2022/04/05 07:51:24;;;;;;;;;;;;;;;7.36;52.69;100111.53;1771525;79;20199;-58
2022/04/05 07:54:30;;;;;;;;;;;;;;;7.47;52.87;100103.94;1771441;81;20595;-58
2022/04/05 07:57:40;;;;;;;;;;;;;;;7.44;52.46;100105.63;1765735;81;20210;-60
2022/04/05 08:00:45;;;;;;;;;;;;;;;7.37;52.39;100096.92;1752279;80;20977;-57
2022/04/05 08:03:52;;;;;;;;;;;;;;;7.34;52.58;100088.55;1762787;81;20210;-57
2022/04/05 08:06:56;;;;;;;;;;;;;;;7.43;52.51;100084.87;1750575;81;20590;-57
2022/04/05 08:10:04;;;;;;;;;;;;;;;7.52;52.59;100074.84;1754955;81;20194;-58
2022/04/05 08:13:09;;;;;;;;;;;;;;;7.59;52.73;100074.02;1749439;81;20261;-57
2022/04/05 08:16:15;;;;;;;;;;;;;;;7.56;53.04;100073.52;1751912;81;20257;-57
2022/04/05 08:19:20;;;;;;;;;;;;;;;7.53;53.44;100071.95;1740366;81;20634;-57
2022/04/05 08:22:24;;;;;;;;;;;;;;;7.55;53.89;100061.77;1758468;81;20197;-58
2022/04/05 08:25:31;;;;;;;;;;;;;;;7.54;54.45;100069.60;1769920;79;20566;-58
2022/04/05 08:28:37;;;;;;;;;;;;;;;7.63;54.87;100059.07;1748502;81;20339;-59
2022/04/05 08:31:43;;;;;;;;;;;;;;;7.76;55.06;100066.77;1761030;81;20205;-58
2022/04/05 08:34:49;;;;;;;;;;;;;;;7.84;54.78;100059.12;1771089;79;20212;-57
2022/04/05 08:37:55;;;;;;;;;;;;;;;7.88;54.89;100047.72;1769279;81;20227;-57
2022/04/05 08:40:59;;;;;;;;;;;;;;;7.90;55.04;100036.65;1772360;81;20205;-55
2022/04/05 08:44:04;;;;;;;;;;;;;;;7.94;55.58;100025.77;1762859;79;20209;-57
2022/04/05 08:47:12;;;;;;;;;;;;;;;8.09;55.81;100018.12;1765737;80;20221;-56
2022/04/05 08:50:17;;;;;;;;;;;;;;;8.35;55.83;100006.59;1772122;80;20206;-57
2022/04/05 08:53:22;;;;;;;;;;;;;;;8.67;55.13;100010.63;1761771;80;20259;-58
2022/04/05 08:56:30;;;;;;;;;;;;;;;8.88;54.42;100007.34;1751041;81;20265;-57
2022/04/05 08:59:38;;;;;;;;;;;;;;;9.03;54.22;99997.43;1769801;81;20217;-57
2022/04/05 09:02:44;;;;;;;;;;;;;;;9.14;53.87;99994.31;1769485;80;20256;-57
2022/04/05 09:05:51;;;;;;;;;;;;;;;9.21;53.60;99984.41;1769567;79;20477;-56
2022/04/05 09:08:55;;;;;;;;;;;;;;;9.30;53.53;99979.23;1770062;80;20601;-57
2022/04/05 09:11:59;;;;;;;;;;;;;;;9.42;53.02;99976.97;1771595;80;20197;-57
2022/04/05 09:15:06;;;;;;;;;;;;;;;9.45;52.57;99971.15;1770460;80;20247;-57
2022/04/05 09:18:09;;;;;;;;;;;;;;;9.48;52.55;99960.69;1771074;80;20237;-57
2022/04/05 09:21:17;;;;;;;;;;;;;;;9.53;52.12;99958.81;1772001;80;20598;-57
2022/04/05 09:24:23;;;;;;;;;;;;;;;9.59;51.63;99956.72;1771864;80;20563;-56
2022/04/05 09:27:28;;;;;;;;;;;;;;;9.61;51.10;99942.38;1771875;80;20209;-56
2022/04/05 09:30:36;;;;;;;;;;;;;;;9.68;51.11;99937.36;1770874;80;20512;-57
2022/04/05 09:33:42;;;;;;;;;;;;;;;9.84;50.83;99935.02;1770600;80;20597;-57
2022/04/05 09:36:50;;;;;;;;;;;;;;;9.98;51.03;99926.88;1771509;80;20629;-57
2022/04/05 09:39:55;;;;;;;;;;;;;;;10.15;50.22;99906.59;1768293;79;20210;-58
2022/04/05 09:43:16;;;;;;;;;;;;;;;10.37;49.30;99913.91;1771545;81;20216;-57
2022/04/05 09:46:23;;;;;;;;;;;;;;;10.65;48.80;99906.44;1768846;79;20507;-56
2022/04/05 09:49:32;;;;;;;;;;;;;;;10.88;47.56;99906.67;1742848;82;20252;-57
2022/04/05 09:52:41;;;;;;;;;;;;;;;11.06;46.29;99909.02;1742916;82;20216;-56
2022/04/05 09:55:47;;;;;;;;;;;;;;;11.13;45.52;99895.73;1742716;81;20220;-57
2022/04/05 09:59:06;;;;;;;;;;;;;;;11.11;45.26;99888.77;1743105;82;20563;-58
2022/04/05 10:02:23;;;;;;;;;;;;;;;11.03;45.37;99880.65;1760521;80;20228;-57
2022/04/05 10:05:37;;;;;;;;;;;;;;;10.94;44.83;99889.48;1784142;79;20225;-59
2022/04/05 10:08:44;;;;;;;;;;;;;;;10.93;44.46;99872.73;1756326;80;20249;-57
2022/04/05 10:11:50;;;;;;;;;;;;;;;11.00;44.54;99870.08;1760034;80;20206;-56
2022/04/05 10:14:54;;;;;;;;;;;;;;;11.14;43.55;99863.73;1771560;80;20214;-57
2022/04/05 10:18:01;;;;;;;;;;;;;;;11.21;42.87;99864.67;1771775;80;20554;-56
2022/04/05 10:21:06;;;;;;;;;;;;;;;11.34;42.46;99857.95;1771670;80;20559;-56
2022/04/05 10:24:14;;;;;;;;;;;;;;;11.53;42.14;99851.33;1771363;81;20201;-59
2022/04/05 10:27:20;;;;;;;;;;;;;;;11.73;41.40;99851.56;1763476;80;20245;-57
2022/04/05 10:30:38;;;;;;;;;;;;;;;11.81;41.00;99847.32;1771598;81;20220;-54
2022/04/05 10:34:04;;;;;;;;;;;;;;;11.83;39.78;99845.21;1770840;80;20261;-54
2022/04/05 10:37:26;;;;;;;;;;;;;;;11.82;38.54;99844.89;1760915;80;20692;-55
2022/04/05 10:40:32;;;;;;;;;;;;;;;11.90;38.21;99838.77;1759828;80;20252;-55
2022/04/05 10:43:39;;;;;;;;;;;;;;;12.18;37.68;99819.56;1767829;80;20578;-55
2022/04/05 10:46:47;;;;;;;;;;;;;;;12.34;36.37;99821.14;1771664;80;20210;-54
2022/04/05 10:49:56;;;;;;;;;;;;;;;12.41;36.30;99807.80;1773653;79;20209;-56
2022/04/05 10:53:19;;;;;;;;;;;;;;;12.57;35.63;99804.74;1771364;81;20237;-57
2022/04/05 10:56:26;;;;;;;;;;;;;;;12.65;35.21;99793.59;1771474;79;20232;-55
2022/04/05 10:59:30;;;;;;;;;;;;;;;12.70;34.83;99791.60;1772235;81;20295;-55
2022/04/05 11:02:39;;;;;;;;;;;;;;;12.76;35.09;99784.77;1770299;81;20593;-55
2022/04/05 11:05:45;;;;;;;;;;;;;;;12.90;35.33;99796.66;1771367;79;20504;-54
2022/04/05 11:08:54;;;;;;;;;;;;;;;12.90;35.13;99782.91;1772005;81;20205;-56
2022/04/05 11:12:00;;;;;;;;;;;;;;;12.86;34.33;99789.34;1762952;80;20210;-56
2022/04/05 11:15:20;;;;;;;;;;;;;;;12.83;34.71;99785.63;1768706;79;20557;-55
2022/04/05 11:18:44;;;;;;;;;;;;;;;12.83;34.36;99771.04;1761032;81;20221;-56
2022/04/05 11:22:02;;;;;;;;;;;;;;;12.84;34.09;99765.89;1770759;80;20202;-54
2022/04/05 11:25:19;;;;;;;;;;;;;;;12.86;34.66;99756.92;1771215;81;20233;-55
2022/04/05 11:28:27;;;;;;;;;;;;;;;12.85;34.43;99763.45;1770857;81;20803;-54
2022/04/05 11:31:40;;;;;;;;;;;;;;;12.74;34.40;99764.03;1771915;81;20646;-54
2022/04/05 11:34:48;;;;;;;;;;;;;;;12.64;34.29;99751.20;1772040;81;20206;-56
2022/04/05 11:37:56;;;;;;;;;;;;;;;12.56;34.31;99744.00;1771479;81;20562;-54
2022/04/05 11:41:03;;;;;;;;;;;;;;;12.45;34.27;99761.56;1771776;81;20242;-55
2022/04/05 11:44:11;;;;;;;;;;;;;;;12.34;34.44;99741.55;1768556;81;20522;-57
2022/04/05 11:47:21;;;;;;;;;;;;;;;12.35;33.97;99752.35;1740155;81;20216;-55
2022/04/05 11:50:27;;;;;;;;;;;;;;;12.30;34.34;99741.13;1744461;81;20641;-56
2022/04/05 11:53:36;;;;;;;;;;;;;;;12.38;34.53;99735.48;1752900;80;20201;-54
2022/04/05 11:56:42;;;;;;;;;;;;;;;12.42;34.32;99746.88;1774772;79;20649;-56
2022/04/05 11:59:43;;;;;;;;;;;;;;;12.41;34.26;99735.06;1774530;79;20226;-56
2022/04/05 12:02:35;;;;;;;;;;;;;;;12.36;34.11;99719.73;1773890;81;20581;-54
2022/04/05 12:05:59;;;;;;;;;;;;;;;12.23;34.32;99730.62;1766613;80;20304;-56
2022/04/05 12:09:07;;;;;;;;;;;;;;;12.17;33.63;99735.56;1768937;80;20214;-55
2022/04/05 12:12:14;;;;;;;;;;;;;;;12.10;33.40;99729.71;1773283;81;20213;-57
2022/04/05 12:15:24;;;;;;;;;;;;;;;12.02;33.60;99721.95;1719264;81;20631;-54
2022/04/05 12:18:30;;;;;;;;;;;;;;;12.01;34.03;99722.16;1754954;81;20205;-55
2022/04/05 12:21:34;;;;;;;;;;;;;;;12.05;34.15;99720.69;1771341;81;20503;-56
2022/04/05 12:24:43;;;;;;;;;;;;;;;12.02;33.87;99713.72;1772140;81;20660;-56
2022/04/05 12:27:48;;;;;;;;;;;;;;;11.98;34.24;99714.33;1772128;80;20218;-56
2022/04/05 12:30:51;;;;;;;;;;;;;;;11.93;34.64;99724.53;1764046;80;20550;-56
2022/04/05 12:34:14;;;;;;;;;;;;;;;11.88;34.27;99730.28;1737674;80;20595;-58
2022/04/05 12:37:20;;;;;;;;;;;;;;;11.81;34.18;99712.95;1725482;82;20549;-57
2022/04/05 12:40:31;;;;;;;;;;;;;;;11.77;34.57;99710.27;1759561;79;20213;-55
2022/04/05 12:43:36;;;;;;;;;;;;;;;11.74;34.18;99706.05;1770664;80;20197;-56
2022/04/05 12:46:52;;;;;;;;;;;;;;;11.71;34.16;99700.11;1773789;79;20558;-59
2022/04/05 12:50:01;;;;;;;;;;;;;;;11.74;34.39;99703.30;1766124;80;20202;-60
2022/04/05 12:53:07;;;;;;;;;;;;;;;11.81;34.51;99724.75;1750821;80;20255;-58
2022/04/05 12:56:16;;;;;;;;;;;;;;;11.86;34.11;99698.95;1765491;79;20221;-59
2022/04/05 12:59:21;;;;;;;;;;;;;;;11.96;33.70;99702.70;1759504;80;20291;-58
2022/04/05 13:02:32;;;;;;;;;;;;;;;12.03;33.29;99697.58;1755642;80;20581;-62
2022/04/05 13:09:19;;;;;;;;;;;;;;;12.16;33.22;99706.44;1768022;81;20508;-58
2022/04/05 13:12:27;;;;;;;;;;;;;;;12.11;33.31;99694.36;1765421;81;20521;-63
2022/04/05 13:15:36;;;;;;;;;;;;;;;12.05;33.51;99690.00;1768244;80;20218;-62
2022/04/05 13:18:51;;;;;;;;;;;;;;;11.99;33.58;99699.55;1769317;80;20251;-60
2022/04/05 13:21:56;;;;;;;;;;;;;;;11.86;34.03;99693.46;1771663;81;20500;-61
2022/04/05 13:25:03;;;;;;;;;;;;;;;11.83;33.95;99689.75;1771934;81;20574;-61
2022/04/05 13:28:12;;;;;;;;;;;;;;;11.75;33.75;99685.80;1770810;81;20205;-63
2022/04/05 13:31:22;;;;;;;;;;;;;;;11.67;33.37;99686.49;1768975;80;20550;-59
2022/04/05 13:34:29;;;;;;;;;;;;;;;11.64;34.05;99690.97;1774390;80;20241;-59
2022/04/05 13:37:34;;;;;;;;;;;;;;;11.58;34.41;99687.63;1773583;80;20230;-60
2022/04/05 13:40:40;;;;;;;;;;;;;;;11.53;34.72;99686.00;1770665;79;20483;-62
2022/04/05 13:43:47;;;;;;;;;;;;;;;11.51;35.18;99674.42;1742091;82;20302;-62
2022/04/05 13:46:54;;;;;;;;;;;;;;;11.53;35.31;99682.75;1741724;81;20211;-61
2022/04/05 13:50:00;;;;;;;;;;;;;;;11.53;35.20;99676.41;1739356;81;20212;-60
2022/04/05 13:53:06;;;;;;;;;;;;;;;11.51;35.12;99674.42;1742357;82;20250;-61
2022/04/05 13:56:13;;;;;;;;;;;;;;;11.50;35.36;99675.44;1741768;81;20196;-57
2022/04/05 13:59:19;;;;;;;;;;;;;;;11.49;35.49;99669.65;1742032;82;20216;-62
2022/04/05 14:02:26;;;;;;;;;;;;;;;11.49;35.84;99659.55;1763430;81;20227;-62
2022/04/05 14:05:33;;;;;;;;;;;;;;;11.53;36.02;99662.20;1768934;81;20866;-62
2022/04/05 14:08:44;;;;;;;;;;;;;;;11.54;35.92;99660.31;1770637;81;20214;-61
2022/04/05 14:11:49;;;;;;;;;;;;;;;11.50;36.04;99660.37;1771180;81;20209;-61
2022/04/05 14:14:54;;;;;;;;;;;;;;;11.49;36.31;99657.31;1771745;80;20249;-63
2022/04/05 14:17:59;;;;;;;;;;;;;;;11.50;36.24;99656.26;1771490;81;20281;-62
2022/04/05 14:21:05;;;;;;;;;;;;;;;11.44;36.08;99654.32;1771383;80;20558;-61
2022/04/05 14:24:11;;;;;;;;;;;;;;;11.34;36.12;99649.19;1770581;80;20217;-61
2022/04/05 14:27:16;;;;;;;;;;;;;;;11.27;36.55;99650.19;1773097;80;20190;-60
2022/04/05 14:30:24;;;;;;;;;;;;;;;11.22;36.67;99641.70;1773459;81;20554;-65
2022/04/05 14:33:32;;;;;;;;;;;;;;;11.17;37.13;99645.05;1773529;81;20193;-61
2022/04/05 14:36:42;;;;;;;;;;;;;;;11.14;37.20;99637.73;1773527;81;20287;-61
2022/04/05 14:39:48;;;;;;;;;;;;;;;11.13;37.38;99632.77;1773402;81;20598;-59
2022/04/05 14:42:53;;;;;;;;;;;;;;;11.12;37.59;99626.98;1772607;81;20214;-59
2022/04/05 14:45:58;;;;;;;;;;;;;;;11.13;37.49;99626.47;1772358;81;20194;-61
2022/04/05 14:49:04;;;;;;;;;;;;;;;11.11;37.59;99625.81;1770250;80;20231;-61
2022/04/05 14:52:09;;;;;;;;;;;;;;;11.10;37.71;99620.02;1764532;80;20229;-61
2022/04/05 14:55:15;;;;;;;;;;;;;;;11.11;38.00;99625.81;1748856;80;20287;-56
2022/04/05 14:58:21;;;;;;;;;;;;;;;11.14;38.11;99622.67;1732871;83;20245;-62
2022/04/05 15:01:25;;;;;;;;;;;;;;;11.13;38.28;99626.47;1732907;83;20276;-62
2022/04/05 15:04:30;;;;;;;;;;;;;;;11.12;38.34;99623.38;1733279;83;20209;-62
2022/04/05 15:07:35;;;;;;;;;;;;;;;11.11;38.34;99619.82;1733144;83;20245;-62
2022/04/05 15:10:42;;;;;;;;;;;;;;;11.12;38.43;99620.64;1732892;83;20209;-62
2022/04/05 15:13:51;;;;;;;;;;;;;;;11.15;38.63;99617.50;1732891;83;20214;-62
2022/04/05 15:16:54;;;;;;;;;;;;;;;11.18;38.78;99615.77;1732228;83;20221;-63
2022/04/05 15:19:59;;;;;;;;;;;;;;;11.17;38.87;99620.39;1754647;80;20213;-63
2022/04/05 15:23:04;;;;;;;;;;;;;;;11.16;38.91;99620.59;1743038;82;20592;-61
2022/04/05 15:26:08;;;;;;;;;;;;;;;11.12;38.84;99615.17;1742649;81;20212;-62
2022/04/05 15:29:15;;;;;;;;;;;;;;;11.06;38.92;99611.86;1708375;84;20546;-61
2022/04/05 15:32:21;;;;;;;;;;;;;;;11.00;38.93;99615.39;1738069;82;20243;-61
2022/04/05 15:35:27;;;;;;;;;;;;;;;10.94;38.96;99609.34;1773595;79;20209;-62
2022/04/05 15:38:32;;;;;;;;;;;;;;;10.89;39.18;99609.08;1772703;80;20296;-61
2022/04/05 15:41:39;;;;;;;;;;;;;;;10.85;39.28;99611.86;1773027;79;20209;-61
2022/04/05 15:44:43;;;;;;;;;;;;;;;10.79;39.52;99602.56;1773847;79;20569;-62
2022/04/05 15:47:48;;;;;;;;;;;;;;;10.74;39.61;99606.91;1773563;80;20201;-60
2022/04/05 15:50:53;;;;;;;;;;;;;;;10.70;39.84;99602.89;1772809;79;20205;-62
2022/04/05 15:53:59;;;;;;;;;;;;;;;10.65;39.90;99595.78;1773443;80;20214;-62
2022/04/05 15:57:05;;;;;;;;;;;;;;;10.61;40.02;99602.70;1772724;81;20213;-62
2022/04/05 16:00:11;;;;;;;;;;;;;;;10.57;40.24;99607.71;1772328;79;20303;-61
2022/04/05 16:03:16;;;;;;;;;;;;;;;10.51;40.39;99612.60;1772480;81;20233;-60
2022/04/05 16:06:23;;;;;;;;;;;;;;;10.47;40.60;99605.80;1772550;79;20202;-61
2022/04/05 16:09:28;;;;;;;;;;;;;;;10.42;40.84;99614.59;1773825;80;20822;-62
2022/04/05 16:12:33;;;;;;;;;;;;;;;10.37;41.01;99606.63;1773204;80;20574;-61
2022/04/05 16:15:38;;;;;;;;;;;;;;;10.31;41.17;99604.67;1765763;80;20213;-61